Time;durP1;ratioP1;P1;durP2;ratioP2;P2;SDS_P1;SDS_P2;PMS_P1;PMS_P2;Temp;Humidity;BMP_temperature;BMP_pressure;BME280_temperature;BME280_humidity;BME280_pressure;Samples;Min_cycle;Max_cycle;Signal;HPM_P1;HPM_P2
2021/05/30 00:01:22;;;;;;;3.15;1.50;;;15.10;62.70;;;;;;4101465;28;20113;-61
2021/05/30 00:03:25;;;;;;;3.45;1.25;;;15.10;62.50;;;;;;4111409;28;20050;-58
2021/05/30 00:05:27;;;;;;;3.65;1.38;;;15.10;62.40;;;;;;4114216;28;20851;-57
2021/05/30 00:07:29;;;;;;;5.22;1.63;;;15.10;63.30;;;;;;4125562;28;20092;-59
2021/05/30 00:09:31;;;;;;;2.53;1.40;;;15.10;63.10;;;;;;4121994;28;20030;-58
2021/05/30 00:11:37;;;;;;;2.25;1.15;;;15.20;63.00;;;;;;4123664;28;20132;-56
2021/05/30 00:13:40;;;;;;;4.40;1.50;;;15.20;63.00;;;;;;4122982;28;20542;-59
2021/05/30 00:15:42;;;;;;;3.53;1.43;;;15.20;63.00;;;;;;4123859;28;20138;-59
2021/05/30 00:17:44;;;;;;;2.05;1.30;;;15.20;63.10;;;;;;4123584;28;20291;-60
2021/05/30 00:19:46;;;;;;;2.05;1.23;;;15.20;63.00;;;;;;4123519;28;20026;-60
2021/05/30 00:21:49;;;;;;;2.63;1.38;;;15.30;63.10;;;;;;4124726;28;20033;-60
2021/05/30 00:23:51;;;;;;;3.15;1.45;;;15.30;63.10;;;;;;4119752;28;20740;-59
2021/05/30 00:25:53;;;;;;;3.65;1.30;;;15.30;63.00;;;;;;4123530;28;20038;-58
2021/05/30 00:27:55;;;;;;;2.83;1.42;;;15.40;63.10;;;;;;4127313;28;20319;-63
2021/05/30 00:29:57;;;;;;;2.33;1.45;;;15.30;63.00;;;;;;4119742;28;20126;-59
2021/05/30 00:31:59;;;;;;;4.35;1.23;;;15.40;63.00;;;;;;4124741;28;20136;-66
2021/05/30 00:34:01;;;;;;;3.25;1.30;;;15.40;62.90;;;;;;4122185;28;20565;-63
2021/05/30 00:36:04;;;;;;;5.43;1.50;;;15.40;62.90;;;;;;4107283;28;20100;-65
2021/05/30 00:38:06;;;;;;;2.67;1.33;;;15.40;63.00;;;;;;4104387;28;20519;-63
2021/05/30 00:40:08;;;;;;;4.50;1.77;;;15.40;62.90;;;;;;4128015;28;20120;-64
2021/05/30 00:42:11;;;;;;;2.75;1.40;;;15.40;63.00;;;;;;4121261;28;20370;-67
2021/05/30 00:44:28;;;;;;;3.95;1.52;;;15.40;63.00;;;;;;4125359;28;20135;-64
2021/05/30 00:46:30;;;;;;;4.10;1.52;;;15.50;63.00;;;;;;4124881;28;20574;-62
2021/05/30 00:48:32;;;;;;;6.97;1.42;;;15.50;63.10;;;;;;4126329;28;20407;-66
2021/05/30 00:50:34;;;;;;;3.90;1.20;;;15.50;63.10;;;;;;4116654;28;20049;-67
2021/05/30 00:52:36;;;;;;;3.33;1.40;;;15.50;63.10;;;;;;4112864;28;20022;-66
2021/05/30 00:54:39;;;;;;;4.05;1.40;;;15.50;63.10;;;;;;4106153;28;20034;-66
2021/05/30 00:56:42;;;;;;;3.45;1.40;;;15.50;63.10;;;;;;4086421;28;20523;-61
2021/05/30 00:58:44;;;;;;;6.35;1.60;;;15.50;63.10;;;;;;4122994;28;20038;-62
2021/05/30 01:00:46;;;;;;;8.73;1.23;;;15.60;63.00;;;;;;4109924;28;20627;-62
2021/05/30 01:02:48;;;;;;;6.30;1.85;;;15.50;62.50;;;;;;4108172;28;20042;-62
2021/05/30 01:04:50;;;;;;;7.38;1.95;;;15.60;61.90;;;;;;4109805;28;20482;-61
2021/05/30 01:06:57;;;;;;;3.97;1.23;;;15.50;61.40;;;;;;4110605;28;20479;-62
2021/05/30 01:09:01;;;;;;;3.75;1.40;;;15.50;61.20;;;;;;4108931;28;21339;-60
2021/05/30 01:11:02;;;;;;;;;;;15.50;61.30;;;;;;4110312;28;20044;-58
2021/05/30 01:13:05;;;;;;;12.40;2.17;;;15.50;61.20;;;;;;4108139;28;19913;-60
2021/05/30 01:15:07;;;;;;;10.90;1.92;;;15.50;64.10;;;;;;4108779;28;20056;-61
2021/05/30 01:17:10;;;;;;;10.43;1.95;;;15.50;63.80;;;;;;4107039;28;20093;-61
2021/05/30 01:19:14;;;;;;;6.18;2.13;;;15.50;63.40;;;;;;4108911;28;20078;-61
2021/05/30 01:21:16;;;;;;;10.25;1.92;;;15.50;64.90;;;;;;4107948;28;20052;-61
2021/05/30 01:23:19;;;;;;;7.55;1.95;;;15.50;64.90;;;;;;4108503;28;20050;-60
2021/05/30 01:25:24;;;;;;;3.23;1.50;;;15.50;64.60;;;;;;4108239;28;20353;-60
2021/05/30 01:27:26;;;;;;;5.90;1.73;;;15.50;64.40;;;;;;4108406;28;20416;-61
2021/05/30 01:29:29;;;;;;;5.65;1.80;;;15.50;64.30;;;;;;4105716;28;20121;-62
2021/05/30 01:31:31;;;;;;;8.32;1.80;;;15.50;64.90;;;;;;4108213;28;20688;-61
2021/05/30 01:33:33;;;;;;;6.70;1.75;;;15.50;64.30;;;;;;4103462;28;20465;-61
2021/05/30 01:35:35;;;;;;;5.80;1.98;;;15.60;64.20;;;;;;4106274;28;20048;-62
2021/05/30 01:37:37;;;;;;;4.85;1.80;;;15.50;64.10;;;;;;4103541;28;20502;-62
2021/05/30 01:39:39;;;;;;;11.32;1.85;;;15.50;64.20;;;;;;4106401;28;20042;-61
2021/05/30 01:41:42;;;;;;;5.40;1.80;;;15.50;64.20;;;;;;4103999;28;20034;-61
2021/05/30 01:43:44;;;;;;;4.10;1.77;;;15.50;64.10;;;;;;4106526;28;20056;-61
2021/05/30 01:45:46;;;;;;;7.32;1.75;;;15.50;64.00;;;;;;4106149;28;20030;-61
2021/05/30 01:47:49;;;;;;;4.68;1.52;;;15.60;64.10;;;;;;4104951;28;20566;-63
2021/05/30 01:49:51;;;;;;;6.23;2.00;;;15.60;63.80;;;;;;4104152;28;20092;-61
2021/05/30 01:51:53;;;;;;;4.28;1.67;;;15.60;63.80;;;;;;4105965;28;20107;-61
2021/05/30 01:54:04;;;;;;;4.95;1.52;;;15.60;63.80;;;;;;4104990;28;20052;-60
2021/05/30 01:58:09;;;;;;;5.32;1.60;;;15.50;63.80;;;;;;4107887;28;20120;-60
2021/05/30 02:00:12;;;;;;;3.47;1.60;;;15.60;64.00;;;;;;4108099;28;20069;-60
2021/05/30 02:02:14;;;;;;;4.25;1.52;;;15.60;63.90;;;;;;4105894;28;20462;-60
2021/05/30 02:04:16;;;;;;;3.92;1.45;;;15.60;63.90;;;;;;4107117;28;20031;-60
2021/05/30 02:06:18;;;;;;;4.25;1.70;;;15.60;63.60;;;;;;4106949;28;20786;-61
2021/05/30 02:08:21;;;;;;;3.70;1.50;;;15.60;63.60;;;;;;4104826;28;20087;-60
2021/05/30 02:10:24;;;;;;;4.68;1.85;;;15.60;63.40;;;;;;4109291;28;20041;-61
2021/05/30 02:12:27;;;;;;;5.43;2.00;;;15.60;63.40;;;;;;4105013;28;20443;-61
2021/05/30 02:14:30;;;;;;;5.13;1.95;;;15.70;63.20;;;;;;4107130;28;20033;-61
2021/05/30 02:16:33;;;;;;;5.07;1.80;;;15.70;63.20;;;;;;4105691;28;20065;-61
2021/05/30 02:18:35;;;;;;;2.15;1.23;;;15.70;63.00;;;;;;4106269;28;20372;-61
2021/05/30 02:20:41;;;;;;;4.32;1.85;;;15.70;63.00;;;;;;4105616;28;20089;-62
2021/05/30 02:22:43;;;;;;;3.20;1.52;;;15.70;62.80;;;;;;4102995;28;20421;-62
2021/05/30 02:24:46;;;;;;;3.90;1.65;;;15.60;62.80;;;;;;4110359;28;20040;-61
2021/05/30 02:26:49;;;;;;;4.78;1.42;;;15.70;62.70;;;;;;4110183;28;20049;-62
2021/05/30 02:28:51;;;;;;;;;;;15.70;62.60;;;;;;4106964;28;20125;-62
2021/05/30 02:30:53;;;;;;;4.03;1.67;;;15.70;62.60;;;;;;4110188;28;19918;-62
2021/05/30 02:32:55;;;;;;;4.43;1.90;;;15.70;62.60;;;;;;4108463;28;20045;-62
2021/05/30 02:34:57;;;;;;;2.85;1.90;;;15.70;62.50;;;;;;4109598;28;20046;-62
2021/05/30 02:36:59;;;;;;;3.55;1.85;;;15.70;62.50;;;;;;4110928;28;20041;-61
2021/05/30 02:39:01;;;;;;;3.53;1.88;;;15.70;62.50;;;;;;4118292;28;20366;-61
2021/05/30 02:41:03;;;;;;;5.18;2.10;;;15.70;62.40;;;;;;4121428;28;20128;-61
2021/05/30 02:43:06;;;;;;;5.53;2.10;;;15.70;62.40;;;;;;4108652;28;20045;-61
2021/05/30 02:45:09;;;;;;;4.40;1.83;;;15.70;62.40;;;;;;4108833;28;20806;-61
2021/05/30 02:47:12;;;;;;;3.88;1.80;;;15.70;62.40;;;;;;4111086;28;20156;-61
2021/05/30 02:49:14;;;;;;;4.60;1.80;;;15.70;62.30;;;;;;4127474;28;20084;-61
2021/05/30 02:51:16;;;;;;;4.30;1.80;;;15.70;62.30;;;;;;4110047;28;20269;-61
2021/05/30 02:53:18;;;;;;;3.03;1.60;;;15.70;62.20;;;;;;4106467;28;20038;-61
2021/05/30 02:55:20;;;;;;;4.40;2.15;;;15.70;62.30;;;;;;4110728;28;20037;-62
2021/05/30 02:57:22;;;;;;;5.75;2.00;;;15.70;62.90;;;;;;4107844;28;20353;-61
2021/05/30 02:59:24;;;;;;;5.20;2.15;;;15.70;62.20;;;;;;4107142;28;20689;-61
2021/05/30 03:01:26;;;;;;;4.10;2.13;;;15.70;62.20;;;;;;4109218;28;20022;-61
2021/05/30 03:03:28;;;;;;;4.28;1.98;;;15.80;62.30;;;;;;4121242;28;20570;-61
2021/05/30 03:05:30;;;;;;;5.90;1.90;;;15.70;62.20;;;;;;4120048;28;20062;-61
2021/05/30 03:07:33;;;;;;;2.83;1.52;;;15.70;62.20;;;;;;4107847;28;20419;-61
2021/05/30 03:09:35;;;;;;;4.75;1.98;;;15.80;62.20;;;;;;4108021;28;20578;-61
2021/05/30 03:11:37;;;;;;;4.97;2.05;;;15.70;62.20;;;;;;4108457;28;20517;-61
2021/05/30 03:13:39;;;;;;;4.37;2.13;;;15.80;62.20;;;;;;4111723;28;20121;-61
2021/05/30 03:15:42;;;;;;;4.15;1.90;;;15.80;62.20;;;;;;4107578;28;20270;-61
2021/05/30 03:17:44;;;;;;;6.32;2.28;;;15.80;62.20;;;;;;4110807;28;20039;-61
2021/05/30 03:19:46;;;;;;;6.32;2.10;;;15.80;62.20;;;;;;4107912;28;20491;-61
2021/05/30 03:21:48;;;;;;;3.17;1.58;;;15.80;62.20;;;;;;4110858;28;20034;-61
2021/05/30 03:23:50;;;;;;;6.28;1.92;;;15.80;62.20;;;;;;4108001;28;20042;-61
2021/05/30 03:25:53;;;;;;;4.70;1.95;;;15.80;62.10;;;;;;4107825;28;20119;-61
2021/05/30 03:27:55;;;;;;;4.30;1.73;;;15.80;62.10;;;;;;4107144;28;20322;-61
2021/05/30 03:29:57;;;;;;;5.63;1.80;;;15.80;62.10;;;;;;4107999;28;20039;-61
2021/05/30 03:31:59;;;;;;;6.18;2.00;;;15.80;62.10;;;;;;4109156;28;20046;-61
2021/05/30 03:34:01;;;;;;;4.90;2.00;;;15.80;62.10;;;;;;4107430;28;20185;-61
2021/05/30 03:36:07;;;;;;;4.82;1.77;;;15.90;62.20;;;;;;4107034;28;20496;-61
2021/05/30 03:38:11;;;;;;;4.85;1.70;;;15.80;62.20;;;;;;4107069;28;20117;-61
2021/05/30 03:40:37;;;;;;;3.45;1.60;;;15.90;62.20;;;;;;4109734;28;20388;-62
2021/05/30 03:42:47;;;;;;;3.67;1.65;;;15.90;62.20;;;;;;4106682;28;20107;-61
2021/05/30 03:44:49;;;;;;;6.63;1.92;;;15.90;62.20;;;;;;4109124;28;20465;-61
2021/05/30 03:46:51;;;;;;;4.22;1.90;;;15.90;62.20;;;;;;4108965;28;20048;-61
2021/05/30 03:48:53;;;;;;;4.63;1.85;;;15.90;62.20;;;;;;4108106;28;20026;-61
2021/05/30 03:50:55;;;;;;;3.83;1.42;;;15.90;62.20;;;;;;4108087;28;20046;-61
2021/05/30 03:52:57;;;;;;;2.78;1.70;;;15.90;62.20;;;;;;4107427;28;20022;-61
2021/05/30 03:54:59;;;;;;;3.78;1.65;;;15.90;62.20;;;;;;4109608;28;20735;-61
2021/05/30 03:57:02;;;;;;;4.07;2.08;;;15.90;62.20;;;;;;4107534;28;20039;-61
2021/05/30 03:59:04;;;;;;;3.42;1.63;;;15.90;62.20;;;;;;4108220;28;20496;-61
2021/05/30 04:01:06;;;;;;;5.20;2.00;;;15.90;62.20;;;;;;4109462;28;20038;-62
2021/05/30 04:03:08;;;;;;;4.55;1.73;;;15.90;62.30;;;;;;4107320;28;20069;-61
2021/05/30 04:05:12;;;;;;;4.10;1.70;;;15.90;62.30;;;;;;4103393;28;20101;-62
2021/05/30 04:07:13;;;;;;;;;;;15.90;62.40;;;;;;4106459;28;20027;-61
2021/05/30 04:09:15;;;;;;;3.97;1.80;;;16.00;62.40;;;;;;4105348;28;19921;-62
2021/05/30 04:11:18;;;;;;;3.50;1.80;;;15.90;62.30;;;;;;4109820;28;20872;-61
2021/05/30 04:13:20;;;;;;;3.10;1.70;;;16.00;62.40;;;;;;4110310;28;20034;-61
2021/05/30 04:15:23;;;;;;;6.57;2.10;;;16.00;62.60;;;;;;4111275;28;20034;-61
2021/05/30 04:17:25;;;;;;;6.63;1.58;;;16.00;63.20;;;;;;4102577;28;20047;-60
2021/05/30 04:19:27;;;;;;;5.90;1.77;;;16.00;63.50;;;;;;4104583;28;20306;-60
2021/05/30 04:21:29;;;;;;;3.90;1.80;;;15.90;63.50;;;;;;4103097;28;20042;-60
2021/05/30 04:23:31;;;;;;;5.47;1.95;;;16.00;63.40;;;;;;4100980;28;20238;-61
2021/05/30 04:25:34;;;;;;;5.35;2.00;;;16.00;63.40;;;;;;4094379;28;20396;-61
2021/05/30 04:27:36;;;;;;;5.03;1.95;;;16.00;63.20;;;;;;4094416;28;20072;-61
2021/05/30 04:29:39;;;;;;;5.13;2.20;;;16.00;63.10;;;;;;4095310;28;20038;-61
2021/05/30 04:31:41;;;;;;;3.80;1.70;;;16.00;63.20;;;;;;4115074;28;20071;-61
2021/05/30 04:33:43;;;;;;;3.65;1.63;;;16.00;63.20;;;;;;4098510;28;20602;-61
2021/05/30 04:35:45;;;;;;;4.88;2.15;;;16.00;63.10;;;;;;4104826;28;20105;-61
2021/05/30 04:37:47;;;;;;;5.40;1.88;;;16.00;63.10;;;;;;4113294;28;20080;-61
2021/05/30 04:39:49;;;;;;;4.40;1.65;;;16.00;63.10;;;;;;4116500;28;20080;-62
2021/05/30 04:41:52;;;;;;;4.28;1.70;;;16.00;63.10;;;;;;4109104;28;20056;-61
2021/05/30 04:43:54;;;;;;;4.57;2.00;;;16.00;63.00;;;;;;4119755;28;20594;-62
2021/05/30 04:45:56;;;;;;;5.30;1.70;;;16.00;63.00;;;;;;4119092;28;20570;-61
2021/05/30 04:48:05;;;;;;;4.75;1.90;;;16.00;63.00;;;;;;4103313;28;20053;-61
2021/05/30 04:50:12;;;;;;;3.42;1.55;;;16.10;63.10;;;;;;4101481;28;20312;-61
2021/05/30 04:52:14;;;;;;;8.57;1.80;;;16.00;63.00;;;;;;4101572;28;20457;-62
2021/05/30 04:54:18;;;;;;;4.32;1.77;;;16.10;63.20;;;;;;4099505;28;20551;-62
2021/05/30 04:56:21;;;;;;;;;;;16.10;63.10;;;;;;4099155;28;20421;-61
2021/05/30 04:58:23;;;;;;;6.40;1.88;;;16.10;63.00;;;;;;4105695;28;20553;-61
2021/05/30 05:00:25;;;;;;;2.50;1.20;;;16.10;63.10;;;;;;4100282;28;20042;-61
2021/05/30 05:02:30;;;;;;;2.85;1.35;;;16.10;63.10;;;;;;4101077;28;20088;-62
2021/05/30 05:04:35;;;;;;;3.97;1.42;;;16.10;63.00;;;;;;4098354;28;20358;-61
2021/05/30 05:06:37;;;;;;;7.18;1.60;;;16.10;63.10;;;;;;4098490;28;20257;-61
2021/05/30 05:08:40;;;;;;;3.15;1.40;;;16.10;63.10;;;;;;4095788;28;21618;-62
2021/05/30 05:10:42;;;;;;;5.75;2.13;;;16.10;63.30;;;;;;4103631;28;20104;-61
2021/05/30 05:12:44;;;;;;;9.65;4.05;;;16.10;64.10;;;;;;4114507;28;20420;-60
2021/05/30 05:14:46;;;;;;;12.15;5.45;;;16.10;63.70;;;;;;4104999;28;20162;-60
2021/05/30 05:16:48;;;;;;;17.92;6.40;;;16.10;64.10;;;;;;4091745;28;20026;-61
2021/05/30 05:18:50;;;;;;;15.30;6.75;;;16.10;64.50;;;;;;4116725;28;20281;-60
2021/05/30 05:20:53;;;;;;;14.48;6.50;;;16.10;64.80;;;;;;4118700;28;20057;-59
2021/05/30 05:22:55;;;;;;;16.88;6.05;;;16.10;64.90;;;;;;4114745;28;20050;-60
2021/05/30 05:24:57;;;;;;;15.18;6.18;;;16.10;64.90;;;;;;4103362;28;20053;-61
2021/05/30 05:26:59;;;;;;;10.77;5.45;;;16.10;64.80;;;;;;4098857;28;20046;-61
2021/05/30 05:29:02;;;;;;;9.88;4.75;;;16.20;64.70;;;;;;4100824;28;20279;-61
2021/05/30 05:31:04;;;;;;;10.05;4.95;;;16.10;64.60;;;;;;4103379;28;20034;-61
2021/05/30 05:33:06;;;;;;;9.23;4.55;;;16.20;64.40;;;;;;4100785;28;20130;-62
2021/05/30 05:35:09;;;;;;;8.52;4.50;;;16.20;64.30;;;;;;4098132;28;20046;-62
2021/05/30 05:37:11;;;;;;;9.80;4.88;;;16.20;64.30;;;;;;4102626;28;20056;-62
2021/05/30 05:39:13;;;;;;;11.52;4.32;;;16.20;64.20;;;;;;4096879;28;20038;-62
2021/05/30 05:41:15;;;;;;;8.13;4.22;;;16.20;64.20;;;;;;4102858;28;20117;-62
2021/05/30 05:43:18;;;;;;;9.75;4.20;;;16.20;64.10;;;;;;4100170;28;20512;-62
2021/05/30 05:45:22;;;;;;;8.17;3.80;;;16.20;64.20;;;;;;4102144;28;21095;-61
2021/05/30 05:47:25;;;;;;;8.05;4.05;;;16.20;64.10;;;;;;4098161;28;20556;-62
2021/05/30 05:49:27;;;;;;;9.10;3.92;;;16.20;64.30;;;;;;4103698;28;20026;-59
2021/05/30 05:51:29;;;;;;;6.68;3.28;;;16.20;64.30;;;;;;4096950;28;20342;-62
2021/05/30 05:53:31;;;;;;;10.65;3.83;;;16.20;64.40;;;;;;4102372;28;20602;-61
2021/05/30 05:55:36;;;;;;;9.52;3.30;;;16.20;64.50;;;;;;4107746;28;20427;-60
2021/05/30 05:57:39;;;;;;;6.70;3.30;;;16.30;64.70;;;;;;4104616;28;20121;-61
2021/05/30 05:59:41;;;;;;;6.18;3.40;;;16.20;64.90;;;;;;4114697;28;20034;-61
2021/05/30 06:01:43;;;;;;;9.13;3.55;;;16.30;65.40;;;;;;4122750;28;20062;-61
2021/05/30 06:03:45;;;;;;;5.68;3.42;;;16.30;65.70;;;;;;4124763;28;20037;-61
2021/05/30 06:05:47;;;;;;;7.07;3.20;;;16.30;65.70;;;;;;4119721;28;20053;-61
2021/05/30 06:07:52;;;;;;;5.63;3.05;;;16.30;65.70;;;;;;4123154;28;20021;-61
2021/05/30 06:09:54;;;;;;;6.72;3.35;;;16.30;65.60;;;;;;4124018;28;20484;-61
2021/05/30 06:11:56;;;;;;;6.35;2.90;;;16.30;65.40;;;;;;4120111;28;20140;-62
2021/05/30 06:13:58;;;;;;;9.68;3.42;;;16.30;65.30;;;;;;4123513;28;20449;-62
2021/05/30 06:16:05;;;;;;;5.18;2.80;;;16.30;65.00;;;;;;4126893;28;20033;-62
2021/05/30 06:18:16;;;;;;;6.35;2.78;;;16.30;64.90;;;;;;4124992;28;20037;-61
2021/05/30 06:20:20;;;;;;;4.47;2.50;;;16.30;64.70;;;;;;4123758;28;20365;-60
2021/05/30 06:22:22;;;;;;;9.27;3.00;;;16.30;64.60;;;;;;4125034;28;20439;-60
2021/05/30 06:24:24;;;;;;;4.53;2.90;;;16.30;64.50;;;;;;4123594;28;20123;-59
2021/05/30 06:26:26;;;;;;;4.07;2.42;;;16.30;64.30;;;;;;4125180;28;20159;-60
2021/05/30 06:28:28;;;;;;;7.13;2.60;;;16.30;64.30;;;;;;4123914;28;20108;-60
2021/05/30 06:30:34;;;;;;;4.10;2.72;;;16.30;64.30;;;;;;4124086;28;20050;-61
2021/05/30 06:32:37;;;;;;;6.25;2.85;;;16.30;64.30;;;;;;4120689;28;20072;-61
2021/05/30 06:34:39;;;;;;;4.18;2.47;;;16.30;64.50;;;;;;4126708;28;20545;-60
2021/05/30 06:36:44;;;;;;;5.70;2.65;;;16.30;64.50;;;;;;4123053;28;20208;-60
2021/05/30 06:38:47;;;;;;;5.68;2.58;;;16.30;64.50;;;;;;4116066;28;20518;-61
2021/05/30 06:40:49;;;;;;;5.95;1.90;;;16.30;64.40;;;;;;4116954;28;20026;-61
2021/05/30 06:42:51;;;;;;;4.63;2.58;;;16.30;64.30;;;;;;4104048;28;20480;-61
2021/05/30 06:44:53;;;;;;;3.40;2.00;;;16.30;64.40;;;;;;4097190;28;20050;-61
2021/05/30 06:46:55;;;;;;;4.65;2.00;;;16.20;64.40;;;;;;4102023;28;20038;-61
2021/05/30 06:48:57;;;;;;;4.53;2.00;;;16.20;64.40;;;;;;4117787;28;20018;-61
2021/05/30 06:51:18;;;;;;;4.97;1.73;;;16.30;64.50;;;;;;4118503;28;20061;-61
2021/05/30 06:53:20;;;;;;;4.25;1.98;;;16.20;64.40;;;;;;4116684;28;20073;-62
2021/05/30 06:55:23;;;;;;;8.68;2.35;;;16.20;64.70;;;;;;4120324;28;20021;-61
2021/05/30 06:57:25;;;;;;;5.13;1.90;;;16.20;64.60;;;;;;4118608;28;20049;-61
2021/05/30 06:59:28;;;;;;;4.07;1.95;;;16.20;64.60;;;;;;4113595;28;20137;-61
2021/05/30 07:01:30;;;;;;;2.63;1.90;;;16.20;64.70;;;;;;4103134;28;20038;-62
2021/05/30 07:03:32;;;;;;;4.05;1.90;;;16.20;64.80;;;;;;4099513;28;20270;-61
2021/05/30 07:05:34;;;;;;;3.50;1.80;;;16.20;64.80;;;;;;4103214;28;20122;-61
2021/05/30 07:07:36;;;;;;;2.45;1.50;;;16.20;65.00;;;;;;4103190;28;20058;-62
2021/05/30 07:09:38;;;;;;;2.53;1.40;;;16.20;64.80;;;;;;4104866;28;20460;-60
2021/05/30 07:11:41;;;;;;;1.92;1.45;;;16.20;64.80;;;;;;4104797;28;20902;-61
2021/05/30 07:13:43;;;;;;;2.78;1.70;;;16.20;64.80;;;;;;4108606;28;20030;-63
2021/05/30 07:15:45;;;;;;;4.07;1.55;;;16.20;64.70;;;;;;4106218;28;20045;-60
2021/05/30 07:17:47;;;;;;;2.63;1.40;;;16.20;64.60;;;;;;4104280;28;20041;-61
2021/05/30 07:19:50;;;;;;;2.20;1.48;;;16.20;64.70;;;;;;4104100;28;20033;-61
2021/05/30 07:21:52;;;;;;;2.90;1.43;;;16.20;64.70;;;;;;4107176;28;20171;-60
2021/05/30 07:23:54;;;;;;;3.25;1.90;;;16.20;64.70;;;;;;4099532;28;20284;-61
2021/05/30 07:25:56;;;;;;;3.25;1.85;;;16.20;64.70;;;;;;4106793;28;20026;-60
2021/05/30 07:27:59;;;;;;;3.90;2.00;;;16.20;64.70;;;;;;4105580;28;20040;-60
2021/05/30 07:30:01;;;;;;;2.65;1.60;;;16.20;64.60;;;;;;4104541;28;20137;-61
2021/05/30 07:32:03;;;;;;;3.63;1.70;;;16.20;64.40;;;;;;4102580;28;20634;-60
2021/05/30 07:34:05;;;;;;;2.90;1.63;;;16.20;64.30;;;;;;4106070;28;20734;-61
2021/05/30 07:36:08;;;;;;;4.07;1.80;;;16.20;64.20;;;;;;4104408;28;20133;-61
2021/05/30 07:38:10;;;;;;;3.80;1.92;;;16.20;64.20;;;;;;4102925;28;20058;-61
2021/05/30 07:40:12;;;;;;;4.25;1.77;;;16.20;64.10;;;;;;4106551;28;20141;-61
2021/05/30 07:42:14;;;;;;;3.10;1.60;;;16.20;64.00;;;;;;4107173;28;20930;-62
2021/05/30 07:44:17;;;;;;;2.80;1.63;;;16.20;64.00;;;;;;4110850;28;20042;-62
2021/05/30 07:46:19;;;;;;;2.25;1.50;;;16.20;63.90;;;;;;4107905;28;20452;-61
2021/05/30 07:48:21;;;;;;;2.80;1.80;;;16.20;63.90;;;;;;4108479;28;20120;-61
2021/05/30 07:50:24;;;;;;;3.08;2.10;;;16.20;63.90;;;;;;4106765;28;20041;-61
2021/05/30 07:52:26;;;;;;;4.00;1.77;;;16.20;63.90;;;;;;4107351;28;20126;-61
2021/05/30 07:54:28;;;;;;;3.80;2.03;;;16.20;64.00;;;;;;4106001;28;20148;-61
2021/05/30 07:56:30;;;;;;;3.53;2.00;;;16.20;63.90;;;;;;4108853;28;20038;-60
2021/05/30 07:58:32;;;;;;;2.33;1.70;;;16.20;64.00;;;;;;4108156;28;20540;-61
2021/05/30 08:00:34;;;;;;;4.03;2.03;;;16.20;63.90;;;;;;4108017;28;20032;-59
2021/05/30 08:02:37;;;;;;;2.97;1.80;;;16.20;63.90;;;;;;4109380;28;20050;-60
2021/05/30 08:04:39;;;;;;;5.00;2.00;;;16.20;63.70;;;;;;4121396;28;20613;-60
2021/05/30 08:06:41;;;;;;;3.28;2.10;;;16.10;63.60;;;;;;4118158;28;20038;-60
2021/05/30 08:08:43;;;;;;;3.30;1.90;;;16.20;63.60;;;;;;4117422;28;20133;-61
2021/05/30 08:10:47;;;;;;;3.13;1.80;;;16.20;63.50;;;;;;4117707;28;20044;-62
2021/05/30 08:12:50;;;;;;;3.13;1.73;;;16.20;64.10;;;;;;4118074;28;20026;-62
2021/05/30 08:14:53;;;;;;;3.38;1.80;;;16.20;63.40;;;;;;4105925;28;20084;-62
2021/05/30 08:16:56;;;;;;;3.25;1.77;;;16.20;63.40;;;;;;4107632;28;20817;-62
2021/05/30 08:18:58;;;;;;;4.25;1.90;;;16.20;63.40;;;;;;4106451;28;20053;-61
2021/05/30 08:21:01;;;;;;;3.58;2.00;;;16.20;63.40;;;;;;4109004;28;21764;-61
2021/05/30 08:23:04;;;;;;;4.65;2.10;;;16.20;63.40;;;;;;4106617;28;21031;-60
2021/05/30 08:25:07;;;;;;;4.63;2.10;;;16.20;63.30;;;;;;4108599;28;20129;-60
2021/05/30 08:27:09;;;;;;;4.03;2.05;;;16.20;63.30;;;;;;4107053;28;20058;-60
2021/05/30 08:29:11;;;;;;;3.38;1.90;;;16.20;63.40;;;;;;4105447;28;20809;-61
2021/05/30 08:31:14;;;;;;;4.03;2.00;;;16.20;63.90;;;;;;4107822;28;20040;-62
2021/05/30 08:33:16;;;;;;;4.97;2.53;;;16.20;63.40;;;;;;4104392;28;20615;-62
2021/05/30 08:35:18;;;;;;;3.65;2.03;;;16.20;63.30;;;;;;4105740;28;21243;-61
2021/05/30 08:37:21;;;;;;;2.65;2.13;;;16.10;63.30;;;;;;4107798;28;20022;-62
2021/05/30 08:39:23;;;;;;;3.92;2.10;;;16.20;63.40;;;;;;4103615;28;20141;-63
2021/05/30 08:41:25;;;;;;;3.83;2.10;;;16.20;63.30;;;;;;4107154;28;20077;-61
2021/05/30 08:43:28;;;;;;;4.13;2.33;;;16.10;63.30;;;;;;4106512;28;20073;-61
2021/05/30 08:45:30;;;;;;;4.82;2.15;;;16.10;63.30;;;;;;4104451;28;20073;-61
2021/05/30 08:47:33;;;;;;;3.00;2.10;;;16.10;63.30;;;;;;4106101;28;20723;-61
2021/05/30 08:49:35;;;;;;;3.50;2.20;;;16.10;63.30;;;;;;4107091;28;20140;-61
2021/05/30 08:51:40;;;;;;;3.95;2.10;;;16.10;63.30;;;;;;4103834;28;20475;-61
2021/05/30 08:53:43;;;;;;;3.50;2.30;;;16.10;63.30;;;;;;4110564;28;20069;-61
2021/05/30 08:55:45;;;;;;;5.00;2.55;;;16.10;63.30;;;;;;4108451;28;20041;-61
2021/05/30 08:57:48;;;;;;;3.88;2.17;;;16.10;63.30;;;;;;4088948;28;20138;-61
2021/05/30 08:59:56;;;;;;;4.13;2.40;;;16.10;63.30;;;;;;4107592;28;20492;-61
2021/05/30 09:02:00;;;;;;;3.35;2.22;;;16.10;63.30;;;;;;4105462;28;20054;-61
2021/05/30 09:04:06;;;;;;;4.95;2.30;;;16.10;63.30;;;;;;4109321;28;20041;-61
2021/05/30 09:06:18;;;;;;;3.22;2.38;;;16.10;63.30;;;;;;4105509;28;20038;-61
2021/05/30 09:08:31;;;;;;;3.22;2.05;;;16.10;63.20;;;;;;4111590;28;20049;-61
2021/05/30 09:10:33;;;;;;;3.78;2.05;;;16.10;63.20;;;;;;4123985;28;20080;-60
2021/05/30 09:12:38;;;;;;;3.27;2.20;;;16.10;63.20;;;;;;4111032;28;20543;-60
2021/05/30 09:14:46;;;;;;;4.07;2.28;;;16.10;63.20;;;;;;4107278;28;20045;-61
2021/05/30 09:17:08;;;;;;;3.85;2.00;;;16.10;63.20;;;;;;4108662;28;20052;-61
2021/05/30 09:19:28;;;;;;;3.05;2.17;;;16.10;63.20;;;;;;4108521;28;20207;-61
2021/05/30 09:21:30;;;;;;;2.42;1.70;;;16.10;63.20;;;;;;4105667;28;20042;-59
2021/05/30 09:23:40;;;;;;;3.15;2.08;;;16.10;63.20;;;;;;4107778;28;20621;-60
2021/05/30 09:25:42;;;;;;;5.10;2.10;;;16.10;63.20;;;;;;4107477;28;20043;-61
2021/05/30 09:28:01;;;;;;;2.90;2.15;;;16.10;63.20;;;;;;4106325;28;20837;-60
2021/05/30 09:30:17;;;;;;;5.13;2.17;;;16.10;63.10;;;;;;4116244;28;20155;-61
2021/05/30 09:32:19;;;;;;;3.88;2.47;;;16.10;63.10;;;;;;4120637;28;20044;-60
2021/05/30 09:34:38;;;;;;;5.30;2.20;;;16.10;63.10;;;;;;4124104;28;20143;-60
2021/05/30 09:37:00;;;;;;;4.07;2.03;;;16.10;63.10;;;;;;4099282;28;20104;-60
2021/05/30 09:39:06;;;;;;;4.18;2.30;;;16.10;63.10;;;;;;4102652;28;20452;-60
2021/05/30 09:41:21;;;;;;;3.50;2.05;;;16.10;63.00;;;;;;4107735;28;20148;-60
2021/05/30 09:43:23;;;;;;;3.28;1.90;;;16.10;63.00;;;;;;4107393;28;20861;-60
2021/05/30 09:45:25;;;;;;;3.45;2.03;;;16.10;63.00;;;;;;4115413;28;20041;-60
2021/05/30 09:47:43;;;;;;;3.05;2.08;;;16.00;63.00;;;;;;4115462;28;20176;-60
2021/05/30 09:49:55;;;;;;;5.03;2.53;;;16.10;63.10;;;;;;4103725;28;20846;-61
2021/05/30 09:51:59;;;;;;;4.25;2.45;;;16.00;62.90;;;;;;4105976;28;20752;-60
2021/05/30 09:54:18;;;;;;;3.20;1.98;;;16.00;62.90;;;;;;4102461;28;20415;-61
2021/05/30 09:56:38;;;;;;;6.93;2.40;;;16.00;62.90;;;;;;4104959;28;20042;-62
2021/05/30 09:58:52;;;;;;;3.83;2.10;;;16.00;62.90;;;;;;4105247;28;20523;-60
2021/05/30 10:00:59;;;;;;;3.42;2.05;;;16.00;62.90;;;;;;4121100;28;20384;-61
2021/05/30 10:03:02;;;;;;;3.60;2.17;;;16.00;62.80;;;;;;4108627;28;20160;-60
2021/05/30 10:05:04;;;;;;;4.13;2.38;;;16.00;62.90;;;;;;4109950;28;20385;-60
2021/05/30 10:07:07;;;;;;;4.33;2.23;;;16.00;62.80;;;;;;4121798;28;20117;-60
2021/05/30 10:09:13;;;;;;;3.33;2.00;;;16.00;63.50;;;;;;4115740;28;20083;-59
2021/05/30 10:11:18;;;;;;;3.55;2.33;;;16.00;62.80;;;;;;4120774;28;20049;-60
2021/05/30 10:13:20;;;;;;;4.25;2.30;;;16.00;62.80;;;;;;4121473;28;20144;-59
2021/05/30 10:15:23;;;;;;;3.95;2.40;;;16.00;62.70;;;;;;4122036;28;20374;-60
2021/05/30 10:17:25;;;;;;;3.42;2.20;;;16.00;62.80;;;;;;4122295;28;20042;-60
2021/05/30 10:19:43;;;;;;;4.10;2.40;;;16.00;62.80;;;;;;4124154;28;20550;-60
2021/05/30 10:21:51;;;;;;;3.53;1.95;;;16.00;62.80;;;;;;4104654;28;20042;-60
2021/05/30 10:23:53;;;;;;;3.25;2.00;;;16.00;62.80;;;;;;4122114;28;20693;-61
2021/05/30 10:26:15;;;;;;;3.80;1.95;;;16.00;62.80;;;;;;4119503;28;20113;-61
2021/05/30 10:28:21;;;;;;;2.92;2.00;;;16.00;62.90;;;;;;4124105;28;20068;-60
2021/05/30 10:30:24;;;;;;;4.53;2.00;;;16.00;62.80;;;;;;4120302;28;21202;-61
2021/05/30 10:32:26;;;;;;;3.13;2.30;;;16.00;62.80;;;;;;4122749;28;20484;-60
2021/05/30 10:34:28;;;;;;;4.85;2.33;;;16.00;62.80;;;;;;4125891;28;20517;-59
2021/05/30 10:36:30;;;;;;;3.25;2.30;;;16.00;62.70;;;;;;4105503;28;20038;-61
2021/05/30 10:38:41;;;;;;;3.85;2.20;;;16.00;62.70;;;;;;4106572;28;20484;-60
2021/05/30 10:40:44;;;;;;;3.03;2.10;;;16.00;62.80;;;;;;4108894;28;20037;-60
2021/05/30 10:43:05;;;;;;;2.88;2.20;;;15.90;62.70;;;;;;4106469;28;20161;-60
2021/05/30 10:45:15;;;;;;;3.47;2.30;;;15.90;62.70;;;;;;4107198;28;20358;-60
2021/05/30 10:47:18;;;;;;;3.53;2.45;;;15.90;62.80;;;;;;4114621;28;20037;-61